sensor_id;sensor_type;location;lat;lon;timestamp;pressure;altitude;pressure_sealevel;temperature;humidity
71151;BME280;59071;42.138;24.768;2023-10-09T00:00:59;99924.63;;;23.41;38.30
71151;BME280;59071;42.138;24.768;2023-10-09T00:03:29;99928.56;;;23.59;38.20
71151;BME280;59071;42.138;24.768;2023-10-09T00:05:55;99927.16;;;23.61;38.12
71151;BME280;59071;42.138;24.768;2023-10-09T00:08:21;99916.56;;;23.60;38.12
71151;BME280;59071;42.138;24.768;2023-10-09T00:10:50;99921.00;;;23.51;38.27
71151;BME280;59071;42.138;24.768;2023-10-09T00:13:24;99916.34;;;23.56;38.20
71151;BME280;59071;42.138;24.768;2023-10-09T00:16:04;99917.66;;;23.93;37.63
71151;BME280;59071;42.138;24.768;2023-10-09T00:18:40;99909.28;;;23.55;38.05
71151;BME280;59071;42.138;24.768;2023-10-09T00:21:20;99913.25;;;23.34;38.52
71151;BME280;59071;42.138;24.768;2023-10-09T00:23:46;99909.97;;;23.42;38.68
71151;BME280;59071;42.138;24.768;2023-10-09T00:26:21;99910.09;;;23.27;38.81
71151;BME280;59071;42.138;24.768;2023-10-09T00:28:47;99909.47;;;22.90;39.52
71151;BME280;59071;42.138;24.768;2023-10-09T00:31:16;99909.31;;;22.71;39.69
71151;BME280;59071;42.138;24.768;2023-10-09T00:33:42;99911.38;;;22.90;39.65
71151;BME280;59071;42.138;24.768;2023-10-09T00:36:08;99913.06;;;22.80;39.79
71151;BME280;59071;42.138;24.768;2023-10-09T00:38:39;99913.06;;;22.86;39.71
71151;BME280;59071;42.138;24.768;2023-10-09T00:41:05;99918.13;;;22.97;39.36
71151;BME280;59071;42.138;24.768;2023-10-09T00:43:37;99918.19;;;22.87;39.98
71151;BME280;59071;42.138;24.768;2023-10-09T00:46:04;99919.72;;;22.59;40.20
71151;BME280;59071;42.138;24.768;2023-10-09T00:48:56;99922.75;;;22.97;39.58
71151;BME280;59071;42.138;24.768;2023-10-09T00:51:23;99935.81;;;22.90;39.57
71151;BME280;59071;42.138;24.768;2023-10-09T00:53:51;99930.97;;;22.87;39.37
71151;BME280;59071;42.138;24.768;2023-10-09T00:56:22;99936.34;;;22.92;39.15
71151;BME280;59071;42.138;24.768;2023-10-09T00:58:49;99937.09;;;23.02;39.13
71151;BME280;59071;42.138;24.768;2023-10-09T01:01:23;99926.84;;;22.94;38.70
71151;BME280;59071;42.138;24.768;2023-10-09T01:03:51;99934.38;;;22.53;38.99
71151;BME280;59071;42.138;24.768;2023-10-09T01:06:17;99937.19;;;22.22;39.47
71151;BME280;59071;42.138;24.768;2023-10-09T01:08:47;99937.97;;;22.38;39.03
71151;BME280;59071;42.138;24.768;2023-10-09T01:11:31;99940.72;;;22.17;39.67
71151;BME280;59071;42.138;24.768;2023-10-09T01:13:57;99948.56;;;22.19;39.28
71151;BME280;59071;42.138;24.768;2023-10-09T01:16:34;99962.63;;;22.47;38.54
71151;BME280;59071;42.138;24.768;2023-10-09T01:19:00;99966.94;;;22.42;38.60
71151;BME280;59071;42.138;24.768;2023-10-09T01:21:31;99972.31;;;22.58;37.97
71151;BME280;59071;42.138;24.768;2023-10-09T01:23:57;99971.28;;;22.49;38.14
71151;BME280;59071;42.138;24.768;2023-10-09T01:26:38;99970.81;;;22.86;37.45
71151;BME280;59071;42.138;24.768;2023-10-09T01:29:08;99967.50;;;23.05;36.93
71151;BME280;59071;42.138;24.768;2023-10-09T01:31:40;99988.75;;;22.87;37.04
71151;BME280;59071;42.138;24.768;2023-10-09T01:34:12;99996.53;;;22.99;36.78
71151;BME280;59071;42.138;24.768;2023-10-09T01:36:41;100007.19;;;22.85;37.28
71151;BME280;59071;42.138;24.768;2023-10-09T01:39:07;100013.66;;;22.94;37.80
71151;BME280;59071;42.138;24.768;2023-10-09T01:41:53;100002.81;;;23.44;37.05
71151;BME280;59071;42.138;24.768;2023-10-09T01:44:27;100009.47;;;23.57;37.45
71151;BME280;59071;42.138;24.768;2023-10-09T01:47:03;100024.72;;;23.13;37.79
71151;BME280;59071;42.138;24.768;2023-10-09T01:49:40;100021.28;;;22.87;38.37
71151;BME280;59071;42.138;24.768;2023-10-09T01:52:12;100020.97;;;22.99;38.11
71151;BME280;59071;42.138;24.768;2023-10-09T01:54:42;100023.53;;;22.70;38.03
71151;BME280;59071;42.138;24.768;2023-10-09T01:57:12;100030.09;;;22.53;39.13
71151;BME280;59071;42.138;24.768;2023-10-09T01:59:39;100032.06;;;22.32;39.15
71151;BME280;59071;42.138;24.768;2023-10-09T02:02:08;100036.00;;;22.71;38.39
71151;BME280;59071;42.138;24.768;2023-10-09T02:04:59;100045.81;;;22.56;38.47
71151;BME280;59071;42.138;24.768;2023-10-09T02:07:36;100047.47;;;22.42;38.75
71151;BME280;59071;42.138;24.768;2023-10-09T02:10:21;100050.88;;;22.83;38.07
71151;BME280;59071;42.138;24.768;2023-10-09T02:12:50;100058.94;;;22.99;37.60
71151;BME280;59071;42.138;24.768;2023-10-09T02:15:26;100074.69;;;23.02;37.66
71151;BME280;59071;42.138;24.768;2023-10-09T02:18:17;100092.09;;;22.91;37.90
71151;BME280;59071;42.138;24.768;2023-10-09T02:21:14;100108.75;;;22.43;39.08
71151;BME280;59071;42.138;24.768;2023-10-09T02:23:39;100108.16;;;19.83;44.90
71151;BME280;59071;42.138;24.768;2023-10-09T02:26:09;100155.25;;;18.82;47.19
71151;BME280;59071;42.138;24.768;2023-10-09T02:28:36;100145.53;;;18.13;48.97
71151;BME280;59071;42.138;24.768;2023-10-09T02:31:09;100164.56;;;18.41;47.68
71151;BME280;59071;42.138;24.768;2023-10-09T02:33:35;100164.16;;;18.49;47.21
71151;BME280;59071;42.138;24.768;2023-10-09T02:36:05;100179.84;;;18.52;46.97
71151;BME280;59071;42.138;24.768;2023-10-09T02:38:32;100185.63;;;18.27;47.22
71151;BME280;59071;42.138;24.768;2023-10-09T02:41:03;100180.09;;;17.88;48.09
71151;BME280;59071;42.138;24.768;2023-10-09T02:43:29;100201.47;;;17.94;46.87
71151;BME280;59071;42.138;24.768;2023-10-09T02:46:17;100200.97;;;17.16;48.12
71151;BME280;59071;42.138;24.768;2023-10-09T02:48:50;100199.59;;;17.02;48.41
71151;BME280;59071;42.138;24.768;2023-10-09T02:51:27;100227.28;;;17.03;47.53
71151;BME280;59071;42.138;24.768;2023-10-09T02:56:20;100227.34;;;16.49;48.53
71151;BME280;59071;42.138;24.768;2023-10-09T02:58:53;100242.75;;;16.77;47.86
71151;BME280;59071;42.138;24.768;2023-10-09T03:01:18;100234.25;;;16.80;48.21
71151;BME280;59071;42.138;24.768;2023-10-09T03:03:44;100250.06;;;17.00;46.92
71151;BME280;59071;42.138;24.768;2023-10-09T03:06:16;100253.81;;;16.99;47.20
71151;BME280;59071;42.138;24.768;2023-10-09T03:08:56;100249.88;;;16.71;48.06
71151;BME280;59071;42.138;24.768;2023-10-09T03:11:22;100250.22;;;16.51;47.66
71151;BME280;59071;42.138;24.768;2023-10-09T03:13:48;100244.41;;;16.66;47.99
71151;BME280;59071;42.138;24.768;2023-10-09T03:16:14;100258.06;;;16.65;47.88
71151;BME280;59071;42.138;24.768;2023-10-09T03:18:47;100252.00;;;16.27;48.22
71151;BME280;59071;42.138;24.768;2023-10-09T03:21:14;100264.22;;;16.11;48.97
71151;BME280;59071;42.138;24.768;2023-10-09T03:23:40;100272.59;;;16.03;48.24
71151;BME280;59071;42.138;24.768;2023-10-09T03:26:06;100286.97;;;15.72;49.71
71151;BME280;59071;42.138;24.768;2023-10-09T03:28:33;100272.34;;;15.49;50.03
71151;BME280;59071;42.138;24.768;2023-10-09T03:30:59;100279.66;;;15.60;49.92
71151;BME280;59071;42.138;24.768;2023-10-09T03:33:30;100281.47;;;15.85;49.39
71151;BME280;59071;42.138;24.768;2023-10-09T03:36:02;100275.31;;;16.15;48.36
71151;BME280;59071;42.138;24.768;2023-10-09T03:38:27;100293.81;;;16.65;47.03
71151;BME280;59071;42.138;24.768;2023-10-09T03:41:03;100302.25;;;16.38;47.31
71151;BME280;59071;42.138;24.768;2023-10-09T03:43:33;100294.06;;;16.33;47.60
71151;BME280;59071;42.138;24.768;2023-10-09T03:46:03;100295.03;;;15.90;48.42
71151;BME280;59071;42.138;24.768;2023-10-09T03:48:30;100301.75;;;15.81;48.82
71151;BME280;59071;42.138;24.768;2023-10-09T03:51:02;100311.84;;;15.60;49.19
71151;BME280;59071;42.138;24.768;2023-10-09T03:53:37;100319.22;;;15.47;50.05
71151;BME280;59071;42.138;24.768;2023-10-09T03:56:08;100310.97;;;15.48;49.31
71151;BME280;59071;42.138;24.768;2023-10-09T03:58:48;100320.97;;;15.34;49.72
71151;BME280;59071;42.138;24.768;2023-10-09T04:01:16;100322.19;;;15.38;50.03
71151;BME280;59071;42.138;24.768;2023-10-09T04:03:51;100331.69;;;15.59;49.14
71151;BME280;59071;42.138;24.768;2023-10-09T04:06:23;100329.44;;;15.56;49.52
71151;BME280;59071;42.138;24.768;2023-10-09T04:08:53;100330.84;;;15.40;50.75
71151;BME280;59071;42.138;24.768;2023-10-09T04:11:20;100333.00;;;15.50;49.05
71151;BME280;59071;42.138;24.768;2023-10-09T04:13:49;100333.84;;;15.25;49.39
71151;BME280;59071;42.138;24.768;2023-10-09T04:16:25;100332.19;;;15.68;48.18
71151;BME280;59071;42.138;24.768;2023-10-09T04:19:02;100329.56;;;15.43;48.77
71151;BME280;59071;42.138;24.768;2023-10-09T04:21:37;100353.88;;;15.23;50.20
71151;BME280;59071;42.138;24.768;2023-10-09T04:24:04;100352.94;;;14.85;47.80
71151;BME280;59071;42.138;24.768;2023-10-09T04:26:43;100353.94;;;15.16;47.81
71151;BME280;59071;42.138;24.768;2023-10-09T04:29:12;100379.28;;;14.89;47.16
71151;BME280;59071;42.138;24.768;2023-10-09T04:31:46;100355.25;;;15.07;46.54
71151;BME280;59071;42.138;24.768;2023-10-09T04:34:19;100372.47;;;14.93;46.73
71151;BME280;59071;42.138;24.768;2023-10-09T04:36:51;100372.78;;;14.71;47.42
71151;BME280;59071;42.138;24.768;2023-10-09T04:39:25;100370.69;;;14.80;46.90
71151;BME280;59071;42.138;24.768;2023-10-09T04:41:57;100372.91;;;15.40;45.17
71151;BME280;59071;42.138;24.768;2023-10-09T04:44:42;100383.53;;;15.28;45.32
71151;BME280;59071;42.138;24.768;2023-10-09T04:47:35;100397.09;;;14.76;46.39
71151;BME280;59071;42.138;24.768;2023-10-09T04:50:05;100382.03;;;14.75;46.06
71151;BME280;59071;42.138;24.768;2023-10-09T04:52:34;100384.94;;;15.05;45.81
71151;BME280;59071;42.138;24.768;2023-10-09T04:55:00;100404.06;;;15.41;44.48
71151;BME280;59071;42.138;24.768;2023-10-09T04:57:32;100394.59;;;14.81;45.47
71151;BME280;59071;42.138;24.768;2023-10-09T05:00:06;100407.00;;;14.76;45.18
71151;BME280;59071;42.138;24.768;2023-10-09T05:02:32;100407.75;;;14.38;45.96
71151;BME280;59071;42.138;24.768;2023-10-09T05:05:02;100399.91;;;14.88;45.55
71151;BME280;59071;42.138;24.768;2023-10-09T05:08:03;100400.72;;;15.20;44.53
71151;BME280;59071;42.138;24.768;2023-10-09T05:10:59;100407.81;;;14.76;44.85
71151;BME280;59071;42.138;24.768;2023-10-09T05:13:25;100399.88;;;14.95;44.56
71151;BME280;59071;42.138;24.768;2023-10-09T05:16:14;100407.41;;;14.73;45.09
71151;BME280;59071;42.138;24.768;2023-10-09T05:18:55;100404.28;;;14.31;45.45
71151;BME280;59071;42.138;24.768;2023-10-09T05:21:37;100413.72;;;14.33;44.40
71151;BME280;59071;42.138;24.768;2023-10-09T05:24:07;100420.34;;;14.24;44.79
71151;BME280;59071;42.138;24.768;2023-10-09T05:26:48;100419.09;;;14.33;44.15
71151;BME280;59071;42.138;24.768;2023-10-09T05:29:24;100421.91;;;14.52;43.56
71151;BME280;59071;42.138;24.768;2023-10-09T05:32:03;100437.88;;;14.85;42.57
71151;BME280;59071;42.138;24.768;2023-10-09T05:34:38;100447.72;;;14.91;42.02
71151;BME280;59071;42.138;24.768;2023-10-09T05:37:22;100437.22;;;14.83;42.46
71151;BME280;59071;42.138;24.768;2023-10-09T05:39:53;100433.56;;;15.09;41.65
71151;BME280;59071;42.138;24.768;2023-10-09T05:45:06;100454.28;;;15.27;41.51
71151;BME280;59071;42.138;24.768;2023-10-09T05:47:52;100452.94;;;14.73;42.93
71151;BME280;59071;42.138;24.768;2023-10-09T05:50:37;100461.44;;;14.63;43.07
71151;BME280;59071;42.138;24.768;2023-10-09T05:53:22;100457.16;;;14.94;42.68
71151;BME280;59071;42.138;24.768;2023-10-09T05:56:06;100480.50;;;14.86;42.92
71151;BME280;59071;42.138;24.768;2023-10-09T05:58:50;100463.41;;;14.81;43.06
71151;BME280;59071;42.138;24.768;2023-10-09T06:01:34;100479.94;;;14.78;43.16
71151;BME280;59071;42.138;24.768;2023-10-09T06:04:19;100477.72;;;14.68;42.95
71151;BME280;59071;42.138;24.768;2023-10-09T06:06:46;100476.53;;;14.96;42.03
71151;BME280;59071;42.138;24.768;2023-10-09T06:09:20;100495.47;;;15.64;41.80
71151;BME280;59071;42.138;24.768;2023-10-09T06:11:47;100498.34;;;15.95;40.18
71151;BME280;59071;42.138;24.768;2023-10-09T06:14:35;100510.31;;;16.17;39.94
71151;BME280;59071;42.138;24.768;2023-10-09T06:17:01;100525.19;;;16.38;39.42
71151;BME280;59071;42.138;24.768;2023-10-09T06:19:27;100512.53;;;16.02;39.16
71151;BME280;59071;42.138;24.768;2023-10-09T06:21:57;100548.78;;;15.54;39.63
71151;BME280;59071;42.138;24.768;2023-10-09T06:24:30;100533.97;;;15.13;40.41
71151;BME280;59071;42.138;24.768;2023-10-09T06:27:06;100549.34;;;14.86;41.48
71151;BME280;59071;42.138;24.768;2023-10-09T06:29:32;100550.44;;;14.65;42.03
71151;BME280;59071;42.138;24.768;2023-10-09T06:32:04;100554.28;;;14.89;41.19
71151;BME280;59071;42.138;24.768;2023-10-09T06:34:52;100551.69;;;14.42;41.97
71151;BME280;59071;42.138;24.768;2023-10-09T06:37:19;100564.03;;;14.63;41.53
71151;BME280;59071;42.138;24.768;2023-10-09T06:39:55;100568.59;;;14.63;42.24
71151;BME280;59071;42.138;24.768;2023-10-09T06:42:22;100564.28;;;15.14;40.67
71151;BME280;59071;42.138;24.768;2023-10-09T06:45:03;100562.56;;;15.26;40.57
71151;BME280;59071;42.138;24.768;2023-10-09T06:47:31;100574.31;;;15.32;41.21
71151;BME280;59071;42.138;24.768;2023-10-09T06:50:10;100568.66;;;15.08;41.21
71151;BME280;59071;42.138;24.768;2023-10-09T06:52:58;100591.16;;;15.84;40.32
71151;BME280;59071;42.138;24.768;2023-10-09T06:55:44;100595.44;;;15.92;39.69
71151;BME280;59071;42.138;24.768;2023-10-09T06:58:26;100587.25;;;15.41;40.42
71151;BME280;59071;42.138;24.768;2023-10-09T07:00:54;100592.22;;;15.38;41.05
71151;BME280;59071;42.138;24.768;2023-10-09T07:03:38;100596.94;;;15.81;40.52
71151;BME280;59071;42.138;24.768;2023-10-09T07:06:18;100592.84;;;15.72;40.26
71151;BME280;59071;42.138;24.768;2023-10-09T07:08:53;100607.34;;;15.25;40.71
71151;BME280;59071;42.138;24.768;2023-10-09T07:11:35;100609.34;;;15.69;40.35
71151;BME280;59071;42.138;24.768;2023-10-09T07:17:06;100607.22;;;16.59;38.92
71151;BME280;59071;42.138;24.768;2023-10-09T07:19:44;100610.50;;;16.43;39.07
71151;BME280;59071;42.138;24.768;2023-10-09T07:22:11;100602.00;;;16.65;38.39
71151;BME280;59071;42.138;24.768;2023-10-09T07:24:55;100610.09;;;15.89;39.67
71151;BME280;59071;42.138;24.768;2023-10-09T07:27:30;100611.84;;;16.27;39.92
71151;BME280;59071;42.138;24.768;2023-10-09T07:30:16;100619.03;;;16.58;38.71
71151;BME280;59071;42.138;24.768;2023-10-09T07:33:01;100629.06;;;16.88;38.93
71151;BME280;59071;42.138;24.768;2023-10-09T07:35:33;100618.41;;;17.49;37.74
71151;BME280;59071;42.138;24.768;2023-10-09T07:38:21;100631.81;;;17.37;37.26
71151;BME280;59071;42.138;24.768;2023-10-09T07:41:01;100613.78;;;17.86;37.47
71151;BME280;59071;42.138;24.768;2023-10-09T07:43:37;100626.31;;;18.04;36.52
71151;BME280;59071;42.138;24.768;2023-10-09T07:46:14;100616.63;;;17.73;37.17
71151;BME280;59071;42.138;24.768;2023-10-09T07:49:05;100613.03;;;18.80;36.01
71151;BME280;59071;42.138;24.768;2023-10-09T07:51:35;100612.88;;;18.75;35.35
71151;BME280;59071;42.138;24.768;2023-10-09T07:54:01;100611.84;;;18.64;35.75
71151;BME280;59071;42.138;24.768;2023-10-09T07:56:40;100626.03;;;18.83;35.54
71151;BME280;59071;42.138;24.768;2023-10-09T07:59:14;100609.97;;;19.29;35.01
71151;BME280;59071;42.138;24.768;2023-10-09T08:01:52;100616.34;;;19.80;34.12
71151;BME280;59071;42.138;24.768;2023-10-09T08:04:24;100610.56;;;19.60;34.41
71151;BME280;59071;42.138;24.768;2023-10-09T08:07:13;100606.38;;;19.81;34.39
71151;BME280;59071;42.138;24.768;2023-10-09T08:09:53;100605.34;;;19.41;34.39
71151;BME280;59071;42.138;24.768;2023-10-09T08:12:38;100601.16;;;19.62;34.39
71151;BME280;59071;42.138;24.768;2023-10-09T08:15:16;100614.81;;;20.01;34.14
71151;BME280;59071;42.138;24.768;2023-10-09T08:17:52;100600.91;;;20.26;33.61
71151;BME280;59071;42.138;24.768;2023-10-09T08:20:26;100605.78;;;20.63;33.12
71151;BME280;59071;42.138;24.768;2023-10-09T08:22:55;100602.91;;;20.53;33.23
71151;BME280;59071;42.138;24.768;2023-10-09T08:25:24;100606.53;;;20.42;33.48
71151;BME280;59071;42.138;24.768;2023-10-09T08:27:57;100610.56;;;20.22;33.54
71151;BME280;59071;42.138;24.768;2023-10-09T08:30:24;100606.72;;;21.40;31.66
71151;BME280;59071;42.138;24.768;2023-10-09T08:32:51;100602.28;;;20.29;33.78
71151;BME280;59071;42.138;24.768;2023-10-09T08:35:43;100594.28;;;20.95;32.65
71151;BME280;59071;42.138;24.768;2023-10-09T08:38:13;100596.94;;;20.90;32.83
71151;BME280;59071;42.138;24.768;2023-10-09T08:40:40;100597.19;;;21.11;32.99
71151;BME280;59071;42.138;24.768;2023-10-09T08:43:19;100590.03;;;21.26;32.06
71151;BME280;59071;42.138;24.768;2023-10-09T08:45:49;100585.56;;;21.59;31.97
71151;BME280;59071;42.138;24.768;2023-10-09T08:48:17;100589.47;;;22.06;31.64
71151;BME280;59071;42.138;24.768;2023-10-09T08:50:49;100582.25;;;22.17;32.75
71151;BME280;59071;42.138;24.768;2023-10-09T08:53:16;100580.44;;;22.80;30.75
71151;BME280;59071;42.138;24.768;2023-10-09T08:55:42;100588.25;;;23.30;30.29
71151;BME280;59071;42.138;24.768;2023-10-09T08:58:09;100575.56;;;23.61;30.82
71151;BME280;59071;42.138;24.768;2023-10-09T09:00:46;100575.31;;;23.88;29.73
71151;BME280;59071;42.138;24.768;2023-10-09T09:03:16;100573.38;;;23.53;29.80
71151;BME280;59071;42.138;24.768;2023-10-09T09:06:08;100573.03;;;23.13;30.11
71151;BME280;59071;42.138;24.768;2023-10-09T09:08:34;100567.75;;;22.91;30.49
71151;BME280;59071;42.138;24.768;2023-10-09T09:11:10;100570.66;;;23.58;30.70
71151;BME280;59071;42.138;24.768;2023-10-09T09:13:44;100553.28;;;23.74;29.86
71151;BME280;59071;42.138;24.768;2023-10-09T09:16:22;100563.91;;;24.02;29.50
71151;BME280;59071;42.138;24.768;2023-10-09T09:18:59;100559.28;;;23.87;29.44
71151;BME280;59071;42.138;24.768;2023-10-09T09:21:50;100554.41;;;23.89;29.23
71151;BME280;59071;42.138;24.768;2023-10-09T09:24:20;100560.63;;;23.64;30.04
71151;BME280;59071;42.138;24.768;2023-10-09T09:26:52;100561.47;;;23.85;29.62
71151;BME280;59071;42.138;24.768;2023-10-09T09:29:39;100553.16;;;23.02;30.48
71151;BME280;59071;42.138;24.768;2023-10-09T09:32:08;100557.56;;;23.24;30.72
71151;BME280;59071;42.138;24.768;2023-10-09T09:37:22;100542.44;;;23.59;30.88
71151;BME280;59071;42.138;24.768;2023-10-09T09:39:55;100535.81;;;24.42;29.38
71151;BME280;59071;42.138;24.768;2023-10-09T09:42:22;100534.84;;;23.92;29.94
71151;BME280;59071;42.138;24.768;2023-10-09T09:44:52;100530.72;;;24.10;30.16
71151;BME280;59071;42.138;24.768;2023-10-09T09:47:19;100527.72;;;25.02;29.48
71151;BME280;59071;42.138;24.768;2023-10-09T09:49:55;100542.03;;;25.18;28.74
71151;BME280;59071;42.138;24.768;2023-10-09T09:52:36;100533.09;;;24.42;29.38
71151;BME280;59071;42.138;24.768;2023-10-09T09:55:10;100532.09;;;23.56;30.45
71151;BME280;59071;42.138;24.768;2023-10-09T09:57:48;100520.69;;;24.00;30.15
71151;BME280;59071;42.138;24.768;2023-10-09T10:00:18;100516.88;;;23.65;30.88
71151;BME280;59071;42.138;24.768;2023-10-09T10:03:31;100495.59;;;24.29;29.49
71151;BME280;59071;42.138;24.768;2023-10-09T10:05:59;100496.63;;;24.53;29.77
71151;BME280;59071;42.138;24.768;2023-10-09T10:08:29;100488.84;;;24.86;29.17
71151;BME280;59071;42.138;24.768;2023-10-09T10:10:58;100487.59;;;24.68;29.25
71151;BME280;59071;42.138;24.768;2023-10-09T10:16:08;100476.38;;;24.05;30.43
71151;BME280;59071;42.138;24.768;2023-10-09T10:18:58;100460.34;;;23.93;30.00
71151;BME280;59071;42.138;24.768;2023-10-09T10:21:47;100456.44;;;24.30;30.08
71151;BME280;59071;42.138;24.768;2023-10-09T10:32:54;100433.44;;;24.72;29.09
71151;BME280;59071;42.138;24.768;2023-10-09T10:35:20;100437.00;;;23.76;30.44
71151;BME280;59071;42.138;24.768;2023-10-09T10:37:58;100430.50;;;23.72;30.93
71151;BME280;59071;42.138;24.768;2023-10-09T10:40:36;100434.56;;;23.18;31.12
71151;BME280;59071;42.138;24.768;2023-10-09T10:43:18;100423.44;;;23.05;31.67
71151;BME280;59071;42.138;24.768;2023-10-09T10:46:05;100422.50;;;24.12;29.83
71151;BME280;59071;42.138;24.768;2023-10-09T10:48:53;100418.53;;;24.59;29.14
71151;BME280;59071;42.138;24.768;2023-10-09T10:51:39;100412.78;;;25.05;28.54
71151;BME280;59071;42.138;24.768;2023-10-09T10:54:08;100410.38;;;25.67;27.91
71151;BME280;59071;42.138;24.768;2023-10-09T10:56:52;100401.59;;;26.24;27.30
71151;BME280;59071;42.138;24.768;2023-10-09T10:59:18;100398.66;;;25.91;27.60
71151;BME280;59071;42.138;24.768;2023-10-09T11:01:52;100390.44;;;25.96;27.87
71151;BME280;59071;42.138;24.768;2023-10-09T11:04:27;100386.41;;;25.01;29.15
71151;BME280;59071;42.138;24.768;2023-10-09T11:07:00;100383.66;;;24.71;28.68
71151;BME280;59071;42.138;24.768;2023-10-09T11:09:56;100375.41;;;24.32;29.00
71151;BME280;59071;42.138;24.768;2023-10-09T11:15:07;100355.84;;;25.09;28.65
71151;BME280;59071;42.138;24.768;2023-10-09T11:18:02;100354.50;;;25.94;27.43
71151;BME280;59071;42.138;24.768;2023-10-09T11:20:38;100350.19;;;25.88;27.13
71151;BME280;59071;42.138;24.768;2023-10-09T11:23:05;100347.63;;;25.97;27.28
71151;BME280;59071;42.138;24.768;2023-10-09T11:25:38;100345.09;;;26.05;27.19
71151;BME280;59071;42.138;24.768;2023-10-09T11:28:17;100350.28;;;26.45;26.49
71151;BME280;59071;42.138;24.768;2023-10-09T11:31:10;100335.50;;;26.84;26.11
71151;BME280;59071;42.138;24.768;2023-10-09T11:33:48;100326.41;;;27.21;25.81
71151;BME280;59071;42.138;24.768;2023-10-09T11:36:22;100325.72;;;26.45;26.03
71151;BME280;59071;42.138;24.768;2023-10-09T11:38:58;100312.69;;;25.26;27.28
71151;BME280;59071;42.138;24.768;2023-10-09T11:41:45;100326.03;;;24.93;27.91
71151;BME280;59071;42.138;24.768;2023-10-09T11:44:15;100300.19;;;24.96;28.03
71151;BME280;59071;42.138;24.768;2023-10-09T11:46:59;100289.66;;;25.43;27.47
71151;BME280;59071;42.138;24.768;2023-10-09T11:49:54;100286.63;;;25.15;27.62
71151;BME280;59071;42.138;24.768;2023-10-09T11:52:26;100286.09;;;25.13;27.54
71151;BME280;59071;42.138;24.768;2023-10-09T11:55:03;100290.69;;;25.47;27.68
71151;BME280;59071;42.138;24.768;2023-10-09T11:57:32;100284.94;;;25.24;27.26
71151;BME280;59071;42.138;24.768;2023-10-09T12:00:03;100288.94;;;24.73;27.88
71151;BME280;59071;42.138;24.768;2023-10-09T12:02:56;100275.53;;;25.11;27.36
71151;BME280;59071;42.138;24.768;2023-10-09T12:05:22;100267.63;;;25.63;26.69
71151;BME280;59071;42.138;24.768;2023-10-09T12:07:49;100267.03;;;25.66;27.38
71151;BME280;59071;42.138;24.768;2023-10-09T12:10:22;100250.91;;;25.89;27.06
71151;BME280;59071;42.138;24.768;2023-10-09T12:12:54;100262.81;;;25.98;26.08
71151;BME280;59071;42.138;24.768;2023-10-09T12:15:25;100260.50;;;26.10;26.62
71151;BME280;59071;42.138;24.768;2023-10-09T12:18:02;100252.16;;;26.21;26.25
71151;BME280;59071;42.138;24.768;2023-10-09T12:20:28;100243.25;;;26.48;26.15
71151;BME280;59071;42.138;24.768;2023-10-09T12:23:01;100240.16;;;26.74;25.94
71151;BME280;59071;42.138;24.768;2023-10-09T12:25:32;100242.41;;;26.85;25.58
71151;BME280;59071;42.138;24.768;2023-10-09T12:28:01;100236.59;;;26.02;26.12
71151;BME280;59071;42.138;24.768;2023-10-09T12:30:30;100247.00;;;25.57;26.54
71151;BME280;59071;42.138;24.768;2023-10-09T12:32:56;100229.47;;;24.56;27.76
71151;BME280;59071;42.138;24.768;2023-10-09T12:35:23;100224.22;;;24.65;28.18
71151;BME280;59071;42.138;24.768;2023-10-09T12:37:53;100218.59;;;24.86;28.33
71151;BME280;59071;42.138;24.768;2023-10-09T12:40:21;100211.06;;;25.02;27.46
71151;BME280;59071;42.138;24.768;2023-10-09T12:42:50;100220.09;;;25.26;26.66
71151;BME280;59071;42.138;24.768;2023-10-09T12:45:16;100212.44;;;25.28;26.74
71151;BME280;59071;42.138;24.768;2023-10-09T12:47:43;100203.34;;;25.14;26.90
71151;BME280;59071;42.138;24.768;2023-10-09T12:50:08;100200.81;;;24.93;27.01
71151;BME280;59071;42.138;24.768;2023-10-09T12:52:39;100188.19;;;24.78;27.51
71151;BME280;59071;42.138;24.768;2023-10-09T12:55:05;100189.88;;;24.40;28.36
71151;BME280;59071;42.138;24.768;2023-10-09T12:57:33;100195.47;;;24.19;28.39
71151;BME280;59071;42.138;24.768;2023-10-09T12:59:59;100193.75;;;24.29;28.47
71151;BME280;59071;42.138;24.768;2023-10-09T13:02:24;100192.03;;;24.04;28.52
71151;BME280;59071;42.138;24.768;2023-10-09T13:04:56;100192.31;;;23.52;29.23
71151;BME280;59071;42.138;24.768;2023-10-09T13:07:22;100175.94;;;23.68;29.28
71151;BME280;59071;42.138;24.768;2023-10-09T13:09:50;100173.41;;;23.87;28.57
71151;BME280;59071;42.138;24.768;2023-10-09T13:12:34;100175.41;;;23.66;28.71
71151;BME280;59071;42.138;24.768;2023-10-09T13:15:10;100162.50;;;23.37;29.17
71151;BME280;59071;42.138;24.768;2023-10-09T13:17:39;100145.09;;;24.27;28.76
71151;BME280;59071;42.138;24.768;2023-10-09T13:20:05;100141.38;;;24.18;27.99
71151;BME280;59071;42.138;24.768;2023-10-09T13:22:42;100140.38;;;24.38;27.85
71151;BME280;59071;42.138;24.768;2023-10-09T13:25:11;100136.41;;;24.59;28.25
71151;BME280;59071;42.138;24.768;2023-10-09T13:27:45;100136.25;;;24.99;27.02
71151;BME280;59071;42.138;24.768;2023-10-09T13:30:19;100146.78;;;23.84;28.46
71151;BME280;59071;42.138;24.768;2023-10-09T13:32:50;100132.81;;;24.00;28.20
71151;BME280;59071;42.138;24.768;2023-10-09T13:35:17;100125.91;;;24.13;27.94
71151;BME280;59071;42.138;24.768;2023-10-09T13:37:43;100130.56;;;24.13;27.83
71151;BME280;59071;42.138;24.768;2023-10-09T13:40:09;100126.03;;;23.98;28.25